sensor_id;sensor_type;location;lat;lon;timestamp;temperature;humidity
14934;DHT22;7560;51.364;12.384;2022-11-03T00:01:16;8.00;99.90
14934;DHT22;7560;51.364;12.384;2022-11-03T00:06:18;8.00;99.90
14934;DHT22;7560;51.364;12.384;2022-11-03T00:11:20;8.00;99.90
14934;DHT22;7560;51.364;12.384;2022-11-03T00:16:21;8.00;99.90
14934;DHT22;7560;51.364;12.384;2022-11-03T00:21:23;8.00;99.90
14934;DHT22;7560;51.364;12.384;2022-11-03T00:26:27;8.00;99.90
14934;DHT22;7560;51.364;12.384;2022-11-03T00:31:32;8.00;99.90
14934;DHT22;7560;51.364;12.384;2022-11-03T00:41:38;7.90;99.90
14934;DHT22;7560;51.364;12.384;2022-11-03T00:46:39;7.90;99.90
14934;DHT22;7560;51.364;12.384;2022-11-03T00:51:41;7.80;99.90
14934;DHT22;7560;51.364;12.384;2022-11-03T00:56:43;7.80;99.90
14934;DHT22;7560;51.364;12.384;2022-11-03T01:01:45;7.80;99.90
14934;DHT22;7560;51.364;12.384;2022-11-03T01:06:50;7.80;99.90
14934;DHT22;7560;51.364;12.384;2022-11-03T01:12:04;7.90;99.90
14934;DHT22;7560;51.364;12.384;2022-11-03T01:17:14;7.80;99.90
14934;DHT22;7560;51.364;12.384;2022-11-03T01:22:17;7.80;99.90
14934;DHT22;7560;51.364;12.384;2022-11-03T01:27:20;7.80;99.90
14934;DHT22;7560;51.364;12.384;2022-11-03T01:32:23;7.80;99.90
14934;DHT22;7560;51.364;12.384;2022-11-03T01:37:25;7.70;99.90
14934;DHT22;7560;51.364;12.384;2022-11-03T01:42:27;7.60;99.90
14934;DHT22;7560;51.364;12.384;2022-11-03T01:47:31;7.70;99.90
14934;DHT22;7560;51.364;12.384;2022-11-03T01:52:37;7.70;99.90
14934;DHT22;7560;51.364;12.384;2022-11-03T01:57:59;7.70;99.90
14934;DHT22;7560;51.364;12.384;2022-11-03T02:03:01;7.70;99.90
14934;DHT22;7560;51.364;12.384;2022-11-03T02:08:23;7.70;99.90
14934;DHT22;7560;51.364;12.384;2022-11-03T02:13:26;7.70;99.90
14934;DHT22;7560;51.364;12.384;2022-11-03T02:18:31;7.70;99.90
14934;DHT22;7560;51.364;12.384;2022-11-03T02:29:09;7.60;99.90
14934;DHT22;7560;51.364;12.384;2022-11-03T02:34:46;7.60;99.90
14934;DHT22;7560;51.364;12.384;2022-11-03T02:39:56;7.60;99.90
14934;DHT22;7560;51.364;12.384;2022-11-03T02:45:03;7.60;99.90
14934;DHT22;7560;51.364;12.384;2022-11-03T02:50:07;7.50;99.90
14934;DHT22;7560;51.364;12.384;2022-11-03T03:00:15;7.70;99.90
14934;DHT22;7560;51.364;12.384;2022-11-03T03:05:20;7.60;99.90
14934;DHT22;7560;51.364;12.384;2022-11-03T03:10:29;7.60;99.90
14934;DHT22;7560;51.364;12.384;2022-11-03T03:20:57;7.60;99.90
14934;DHT22;7560;51.364;12.384;2022-11-03T03:26:11;7.50;99.90
14934;DHT22;7560;51.364;12.384;2022-11-03T03:31:15;7.40;99.90
14934;DHT22;7560;51.364;12.384;2022-11-03T03:36:20;7.50;99.90
14934;DHT22;7560;51.364;12.384;2022-11-03T03:41:27;7.40;99.90
14934;DHT22;7560;51.364;12.384;2022-11-03T03:46:33;7.50;99.90
14934;DHT22;7560;51.364;12.384;2022-11-03T03:51:36;7.50;99.90
14934;DHT22;7560;51.364;12.384;2022-11-03T03:56:46;7.40;99.90
14934;DHT22;7560;51.364;12.384;2022-11-03T04:01:48;7.50;99.90
14934;DHT22;7560;51.364;12.384;2022-11-03T04:06:50;7.50;99.90
14934;DHT22;7560;51.364;12.384;2022-11-03T04:12:12;7.50;99.90
14934;DHT22;7560;51.364;12.384;2022-11-03T04:17:32;7.50;99.90
14934;DHT22;7560;51.364;12.384;2022-11-03T04:22:53;7.50;99.90
14934;DHT22;7560;51.364;12.384;2022-11-03T04:27:54;7.50;99.90
14934;DHT22;7560;51.364;12.384;2022-11-03T04:32:56;7.50;99.90
14934;DHT22;7560;51.364;12.384;2022-11-03T04:38:07;7.50;99.90
14934;DHT22;7560;51.364;12.384;2022-11-03T04:43:13;7.50;99.90
14934;DHT22;7560;51.364;12.384;2022-11-03T04:48:18;7.40;99.90
14934;DHT22;7560;51.364;12.384;2022-11-03T04:53:22;7.30;99.90
14934;DHT22;7560;51.364;12.384;2022-11-03T04:58:32;7.40;99.90
14934;DHT22;7560;51.364;12.384;2022-11-03T05:03:35;7.30;99.90
14934;DHT22;7560;51.364;12.384;2022-11-03T05:08:38;7.20;99.90
14934;DHT22;7560;51.364;12.384;2022-11-03T05:13:39;7.10;99.90
14934;DHT22;7560;51.364;12.384;2022-11-03T05:18:43;7.10;99.90
14934;DHT22;7560;51.364;12.384;2022-11-03T05:23:52;7.10;99.90
14934;DHT22;7560;51.364;12.384;2022-11-03T05:28:58;7.00;99.90
14934;DHT22;7560;51.364;12.384;2022-11-03T05:34:05;7.00;99.90
14934;DHT22;7560;51.364;12.384;2022-11-03T05:39:33;7.10;99.90
14934;DHT22;7560;51.364;12.384;2022-11-03T05:44:36;7.10;99.90
14934;DHT22;7560;51.364;12.384;2022-11-03T05:49:40;7.20;99.90
14934;DHT22;7560;51.364;12.384;2022-11-03T05:54:41;7.30;99.90
14934;DHT22;7560;51.364;12.384;2022-11-03T05:59:45;7.30;99.90
14934;DHT22;7560;51.364;12.384;2022-11-03T06:04:47;7.20;99.90
14934;DHT22;7560;51.364;12.384;2022-11-03T06:09:51;7.10;99.90
14934;DHT22;7560;51.364;12.384;2022-11-03T06:14:53;7.20;99.90
14934;DHT22;7560;51.364;12.384;2022-11-03T06:19:56;7.20;99.90
14934;DHT22;7560;51.364;12.384;2022-11-03T06:25:08;7.20;99.90
14934;DHT22;7560;51.364;12.384;2022-11-03T06:30:32;7.30;99.90
14934;DHT22;7560;51.364;12.384;2022-11-03T06:35:34;7.40;99.90
14934;DHT22;7560;51.364;12.384;2022-11-03T06:40:36;7.40;99.90
14934;DHT22;7560;51.364;12.384;2022-11-03T06:45:50;7.60;99.90
14934;DHT22;7560;51.364;12.384;2022-11-03T06:50:53;7.60;99.90
14934;DHT22;7560;51.364;12.384;2022-11-03T06:55:55;7.70;99.90
14934;DHT22;7560;51.364;12.384;2022-11-03T07:01:02;7.80;99.90
14934;DHT22;7560;51.364;12.384;2022-11-03T07:11:17;7.80;99.90
14934;DHT22;7560;51.364;12.384;2022-11-03T07:16:29;7.90;99.90
14934;DHT22;7560;51.364;12.384;2022-11-03T07:21:39;8.00;99.90
14934;DHT22;7560;51.364;12.384;2022-11-03T07:26:41;8.00;99.90
14934;DHT22;7560;51.364;12.384;2022-11-03T07:31:43;8.10;99.90
14934;DHT22;7560;51.364;12.384;2022-11-03T07:36:44;8.20;99.90
14934;DHT22;7560;51.364;12.384;2022-11-03T07:41:53;8.30;99.90
14934;DHT22;7560;51.364;12.384;2022-11-03T07:46:54;8.30;99.90
14934;DHT22;7560;51.364;12.384;2022-11-03T07:51:58;8.40;99.90
14934;DHT22;7560;51.364;12.384;2022-11-03T07:57:10;8.50;99.90
14934;DHT22;7560;51.364;12.384;2022-11-03T08:02:40;8.70;99.90
14934;DHT22;7560;51.364;12.384;2022-11-03T08:07:43;9.00;99.90
14934;DHT22;7560;51.364;12.384;2022-11-03T08:12:44;9.20;99.90
14934;DHT22;7560;51.364;12.384;2022-11-03T08:17:46;9.40;99.90
14934;DHT22;7560;51.364;12.384;2022-11-03T08:22:53;9.50;99.90
14934;DHT22;7560;51.364;12.384;2022-11-03T08:28:15;9.70;99.90
14934;DHT22;7560;51.364;12.384;2022-11-03T08:33:17;9.90;99.90
14934;DHT22;7560;51.364;12.384;2022-11-03T08:38:19;10.00;99.90
14934;DHT22;7560;51.364;12.384;2022-11-03T08:43:21;10.20;99.90
14934;DHT22;7560;51.364;12.384;2022-11-03T08:48:24;10.30;99.90
14934;DHT22;7560;51.364;12.384;2022-11-03T08:53:29;10.40;99.90
14934;DHT22;7560;51.364;12.384;2022-11-03T08:58:31;10.60;99.90
14934;DHT22;7560;51.364;12.384;2022-11-03T09:03:33;10.80;99.90
14934;DHT22;7560;51.364;12.384;2022-11-03T09:08:35;10.90;99.90
14934;DHT22;7560;51.364;12.384;2022-11-03T09:13:56;11.00;99.90
14934;DHT22;7560;51.364;12.384;2022-11-03T09:18:58;11.20;99.90
14934;DHT22;7560;51.364;12.384;2022-11-03T09:24:00;11.20;99.90
14934;DHT22;7560;51.364;12.384;2022-11-03T09:29:01;11.30;99.90
14934;DHT22;7560;51.364;12.384;2022-11-03T09:34:03;11.40;99.90
14934;DHT22;7560;51.364;12.384;2022-11-03T09:39:05;11.50;99.90
14934;DHT22;7560;51.364;12.384;2022-11-03T09:44:06;11.60;99.90
14934;DHT22;7560;51.364;12.384;2022-11-03T09:49:15;11.70;99.90
14934;DHT22;7560;51.364;12.384;2022-11-03T09:54:17;11.80;99.90
14934;DHT22;7560;51.364;12.384;2022-11-03T09:59:21;12.00;99.90
14934;DHT22;7560;51.364;12.384;2022-11-03T10:04:27;12.10;99.90
14934;DHT22;7560;51.364;12.384;2022-11-03T10:09:29;12.40;99.90
14934;DHT22;7560;51.364;12.384;2022-11-03T10:14:31;12.70;99.90
14934;DHT22;7560;51.364;12.384;2022-11-03T10:19:33;12.80;99.90
14934;DHT22;7560;51.364;12.384;2022-11-03T10:24:34;12.90;99.90
14934;DHT22;7560;51.364;12.384;2022-11-03T10:29:36;13.00;99.90
14934;DHT22;7560;51.364;12.384;2022-11-03T10:34:41;13.30;99.90
14934;DHT22;7560;51.364;12.384;2022-11-03T10:39:44;13.50;99.90
14934;DHT22;7560;51.364;12.384;2022-11-03T10:44:47;13.70;99.90
14934;DHT22;7560;51.364;12.384;2022-11-03T10:49:51;13.80;99.90
14934;DHT22;7560;51.364;12.384;2022-11-03T10:54:57;14.00;99.90
14934;DHT22;7560;51.364;12.384;2022-11-03T11:00:00;14.10;99.90
14934;DHT22;7560;51.364;12.384;2022-11-03T11:05:11;14.30;99.90
14934;DHT22;7560;51.364;12.384;2022-11-03T11:10:25;14.40;99.90
14934;DHT22;7560;51.364;12.384;2022-11-03T11:15:39;14.40;99.90
14934;DHT22;7560;51.364;12.384;2022-11-03T11:20:41;14.50;99.90
14934;DHT22;7560;51.364;12.384;2022-11-03T11:42:11;14.20;99.90
14934;DHT22;7560;51.364;12.384;2022-11-03T11:57:43;14.50;99.90
14934;DHT22;7560;51.364;12.384;2022-11-03T12:02:46;14.40;99.90
14934;DHT22;7560;51.364;12.384;2022-11-03T12:07:48;14.40;99.90
14934;DHT22;7560;51.364;12.384;2022-11-03T12:12:50;14.30;99.90
14934;DHT22;7560;51.364;12.384;2022-11-03T12:17:52;14.30;99.90
14934;DHT22;7560;51.364;12.384;2022-11-03T12:22:54;14.30;99.90
14934;DHT22;7560;51.364;12.384;2022-11-03T12:27:55;14.30;99.90
14934;DHT22;7560;51.364;12.384;2022-11-03T12:32:57;14.30;99.90
14934;DHT22;7560;51.364;12.384;2022-11-03T12:37:59;14.50;99.90
14934;DHT22;7560;51.364;12.384;2022-11-03T12:43:00;14.60;99.90
14934;DHT22;7560;51.364;12.384;2022-11-03T12:48:02;14.70;99.90
14934;DHT22;7560;51.364;12.384;2022-11-03T12:53:05;14.60;99.90
14934;DHT22;7560;51.364;12.384;2022-11-03T12:58:08;14.60;99.90
14934;DHT22;7560;51.364;12.384;2022-11-03T13:03:10;14.60;99.90
14934;DHT22;7560;51.364;12.384;2022-11-03T13:08:12;14.50;99.90
14934;DHT22;7560;51.364;12.384;2022-11-03T13:13:14;14.50;99.90
14934;DHT22;7560;51.364;12.384;2022-11-03T13:18:15;14.60;99.90
14934;DHT22;7560;51.364;12.384;2022-11-03T13:23:17;14.60;99.90
14934;DHT22;7560;51.364;12.384;2022-11-03T13:28:23;14.80;99.90
14934;DHT22;7560;51.364;12.384;2022-11-03T13:33:25;14.90;99.90
14934;DHT22;7560;51.364;12.384;2022-11-03T13:38:26;15.00;99.90
14934;DHT22;7560;51.364;12.384;2022-11-03T13:43:28;15.00;99.90
14934;DHT22;7560;51.364;12.384;2022-11-03T13:48:30;14.90;99.90
14934;DHT22;7560;51.364;12.384;2022-11-03T13:53:52;14.90;99.90
14934;DHT22;7560;51.364;12.384;2022-11-03T13:59:14;14.80;99.90
14934;DHT22;7560;51.364;12.384;2022-11-03T14:04:31;14.80;99.90
14934;DHT22;7560;51.364;12.384;2022-11-03T14:09:40;14.70;99.90
14934;DHT22;7560;51.364;12.384;2022-11-03T14:14:42;14.70;99.90
14934;DHT22;7560;51.364;12.384;2022-11-03T14:19:44;14.70;99.90
14934;DHT22;7560;51.364;12.384;2022-11-03T14:24:53;14.70;99.90
14934;DHT22;7560;51.364;12.384;2022-11-03T14:29:54;14.70;99.90
14934;DHT22;7560;51.364;12.384;2022-11-03T14:34:56;14.60;99.90
14934;DHT22;7560;51.364;12.384;2022-11-03T14:39:58;14.50;99.90
14934;DHT22;7560;51.364;12.384;2022-11-03T14:45:00;14.50;99.90
14934;DHT22;7560;51.364;12.384;2022-11-03T14:50:02;14.30;99.90
14934;DHT22;7560;51.364;12.384;2022-11-03T14:55:04;14.30;99.90
14934;DHT22;7560;51.364;12.384;2022-11-03T15:00:07;14.20;99.90
14934;DHT22;7560;51.364;12.384;2022-11-03T15:05:10;14.00;99.90
14934;DHT22;7560;51.364;12.384;2022-11-03T15:10:32;13.90;99.90
14934;DHT22;7560;51.364;12.384;2022-11-03T15:15:34;13.80;99.90
14934;DHT22;7560;51.364;12.384;2022-11-03T15:20:36;13.70;99.90
14934;DHT22;7560;51.364;12.384;2022-11-03T15:25:38;13.60;99.90
14934;DHT22;7560;51.364;12.384;2022-11-03T15:30:40;13.50;99.90
14934;DHT22;7560;51.364;12.384;2022-11-03T15:35:41;13.40;99.90
14934;DHT22;7560;51.364;12.384;2022-11-03T15:40:43;13.40;99.90
14934;DHT22;7560;51.364;12.384;2022-11-03T15:45:45;13.30;99.90
14934;DHT22;7560;51.364;12.384;2022-11-03T15:50:47;13.30;99.90
14934;DHT22;7560;51.364;12.384;2022-11-03T15:55:48;13.30;99.90
14934;DHT22;7560;51.364;12.384;2022-11-03T16:00:50;13.20;99.90
14934;DHT22;7560;51.364;12.384;2022-11-03T16:05:52;13.10;99.90
14934;DHT22;7560;51.364;12.384;2022-11-03T16:10:53;13.10;99.90
14934;DHT22;7560;51.364;12.384;2022-11-03T16:15:58;13.00;99.90
14934;DHT22;7560;51.364;12.384;2022-11-03T16:21:00;13.00;99.90
14934;DHT22;7560;51.364;12.384;2022-11-03T16:26:02;13.00;99.90
14934;DHT22;7560;51.364;12.384;2022-11-03T16:31:05;12.90;99.90
14934;DHT22;7560;51.364;12.384;2022-11-03T16:36:07;12.90;99.90
14934;DHT22;7560;51.364;12.384;2022-11-03T16:41:09;12.80;99.90
14934;DHT22;7560;51.364;12.384;2022-11-03T16:46:10;12.70;99.90
14934;DHT22;7560;51.364;12.384;2022-11-03T16:51:12;12.60;99.90
14934;DHT22;7560;51.364;12.384;2022-11-03T16:56:14;12.70;99.90
14934;DHT22;7560;51.364;12.384;2022-11-03T17:01:16;12.60;99.90
14934;DHT22;7560;51.364;12.384;2022-11-03T17:06:17;12.50;99.90
14934;DHT22;7560;51.364;12.384;2022-11-03T17:11:19;12.50;99.90
14934;DHT22;7560;51.364;12.384;2022-11-03T17:16:36;12.40;99.90
14934;DHT22;7560;51.364;12.384;2022-11-03T17:21:38;12.30;99.90
14934;DHT22;7560;51.364;12.384;2022-11-03T17:27:05;12.30;99.90
14934;DHT22;7560;51.364;12.384;2022-11-03T17:32:21;12.20;99.90
14934;DHT22;7560;51.364;12.384;2022-11-03T17:37:25;12.10;99.90
14934;DHT22;7560;51.364;12.384;2022-11-03T17:42:27;12.00;99.90
14934;DHT22;7560;51.364;12.384;2022-11-03T17:47:29;11.90;99.90
14934;DHT22;7560;51.364;12.384;2022-11-03T17:52:32;11.90;99.90
14934;DHT22;7560;51.364;12.384;2022-11-03T17:57:34;11.80;99.90
14934;DHT22;7560;51.364;12.384;2022-11-03T18:02:38;11.70;99.90
14934;DHT22;7560;51.364;12.384;2022-11-03T18:07:40;11.50;99.90
14934;DHT22;7560;51.364;12.384;2022-11-03T18:12:45;11.30;99.90
14934;DHT22;7560;51.364;12.384;2022-11-03T18:18:39;11.20;99.90
14934;DHT22;7560;51.364;12.384;2022-11-03T18:23:39;11.20;99.90
14934;DHT22;7560;51.364;12.384;2022-11-03T18:28:41;11.20;99.90
14934;DHT22;7560;51.364;12.384;2022-11-03T18:33:43;11.20;99.90
14934;DHT22;7560;51.364;12.384;2022-11-03T18:38:45;11.20;99.90
14934;DHT22;7560;51.364;12.384;2022-11-03T18:43:48;11.20;99.90
14934;DHT22;7560;51.364;12.384;2022-11-03T18:48:50;11.40;99.90
14934;DHT22;7560;51.364;12.384;2022-11-03T18:53:52;11.40;99.90
14934;DHT22;7560;51.364;12.384;2022-11-03T18:58:55;11.30;99.90
14934;DHT22;7560;51.364;12.384;2022-11-03T19:03:57;11.20;99.90
14934;DHT22;7560;51.364;12.384;2022-11-03T19:08:59;11.10;99.90
14934;DHT22;7560;51.364;12.384;2022-11-03T19:14:02;11.00;99.90
14934;DHT22;7560;51.364;12.384;2022-11-03T19:19:03;10.90;99.90
14934;DHT22;7560;51.364;12.384;2022-11-03T19:24:05;10.80;99.90
14934;DHT22;7560;51.364;12.384;2022-11-03T19:29:13;10.70;99.90
14934;DHT22;7560;51.364;12.384;2022-11-03T19:34:27;10.70;99.90
14934;DHT22;7560;51.364;12.384;2022-11-03T19:39:30;10.60;99.90
14934;DHT22;7560;51.364;12.384;2022-11-03T19:44:33;10.50;99.90
14934;DHT22;7560;51.364;12.384;2022-11-03T19:49:35;10.50;99.90
14934;DHT22;7560;51.364;12.384;2022-11-03T19:54:37;10.50;99.90
14934;DHT22;7560;51.364;12.384;2022-11-03T19:59:41;10.50;99.90
14934;DHT22;7560;51.364;12.384;2022-11-03T20:04:43;10.40;99.90
14934;DHT22;7560;51.364;12.384;2022-11-03T20:09:47;10.40;99.90
14934;DHT22;7560;51.364;12.384;2022-11-03T20:14:49;10.30;99.90
14934;DHT22;7560;51.364;12.384;2022-11-03T20:19:51;10.20;99.90
14934;DHT22;7560;51.364;12.384;2022-11-03T20:24:57;10.00;99.90
14934;DHT22;7560;51.364;12.384;2022-11-03T20:30:00;9.90;99.90
14934;DHT22;7560;51.364;12.384;2022-11-03T20:35:02;9.80;99.90
14934;DHT22;7560;51.364;12.384;2022-11-03T20:40:08;9.90;99.90
14934;DHT22;7560;51.364;12.384;2022-11-03T20:45:12;9.80;99.90
14934;DHT22;7560;51.364;12.384;2022-11-03T20:50:18;9.70;99.90
14934;DHT22;7560;51.364;12.384;2022-11-03T20:55:23;9.70;99.90
14934;DHT22;7560;51.364;12.384;2022-11-03T21:00:26;9.70;99.90
14934;DHT22;7560;51.364;12.384;2022-11-03T21:05:28;9.90;99.90
14934;DHT22;7560;51.364;12.384;2022-11-03T21:10:30;9.90;99.90
14934;DHT22;7560;51.364;12.384;2022-11-03T21:15:32;10.00;99.90
14934;DHT22;7560;51.364;12.384;2022-11-03T21:21:13;10.00;99.90
14934;DHT22;7560;51.364;12.384;2022-11-03T21:26:21;9.90;99.90
14934;DHT22;7560;51.364;12.384;2022-11-03T21:31:23;9.80;99.90
14934;DHT22;7560;51.364;12.384;2022-11-03T21:36:24;9.70;99.90
14934;DHT22;7560;51.364;12.384;2022-11-03T21:41:26;9.70;99.90
14934;DHT22;7560;51.364;12.384;2022-11-03T21:46:47;9.60;99.90
14934;DHT22;7560;51.364;12.384;2022-11-03T21:51:49;9.50;99.90
14934;DHT22;7560;51.364;12.384;2022-11-03T21:56:51;9.50;99.90
14934;DHT22;7560;51.364;12.384;2022-11-03T22:01:53;9.40;99.90
14934;DHT22;7560;51.364;12.384;2022-11-03T22:06:57;9.30;99.90
14934;DHT22;7560;51.364;12.384;2022-11-03T22:11:58;9.30;99.90
14934;DHT22;7560;51.364;12.384;2022-11-03T22:17:01;9.30;99.90
14934;DHT22;7560;51.364;12.384;2022-11-03T22:22:11;9.30;99.90
14934;DHT22;7560;51.364;12.384;2022-11-03T22:27:33;9.30;99.90
14934;DHT22;7560;51.364;12.384;2022-11-03T22:32:35;9.30;99.90
14934;DHT22;7560;51.364;12.384;2022-11-03T22:37:37;9.20;99.90
14934;DHT22;7560;51.364;12.384;2022-11-03T22:42:38;9.10;99.90
14934;DHT22;7560;51.364;12.384;2022-11-03T22:47:58;9.10;99.90
14934;DHT22;7560;51.364;12.384;2022-11-03T22:53:02;9.10;99.90
14934;DHT22;7560;51.364;12.384;2022-11-03T22:58:24;9.10;99.90
14934;DHT22;7560;51.364;12.384;2022-11-03T23:03:36;9.00;99.90
14934;DHT22;7560;51.364;12.384;2022-11-03T23:08:39;9.20;99.90
14934;DHT22;7560;51.364;12.384;2022-11-03T23:18:44;9.30;99.90
14934;DHT22;7560;51.364;12.384;2022-11-03T23:24:05;9.40;99.90
14934;DHT22;7560;51.364;12.384;2022-11-03T23:29:25;9.50;99.90
14934;DHT22;7560;51.364;12.384;2022-11-03T23:34:27;9.60;99.90
14934;DHT22;7560;51.364;12.384;2022-11-03T23:39:29;9.60;99.90
14934;DHT22;7560;51.364;12.384;2022-11-03T23:44:31;9.60;99.90
14934;DHT22;7560;51.364;12.384;2022-11-03T23:49:52;9.50;99.90
14934;DHT22;7560;51.364;12.384;2022-11-03T23:54:54;9.40;99.90
14934;DHT22;7560;51.364;12.384;2022-11-03T23:59:56;9.50;99.90
